Center for Professional Development & Training
CPDT sessions are restricted to UNF faculty, staff and OPS employees, including student assistants.

Below are current open training sessions. Restricted or full sessions are not listed. Contact training@unf.edu for additional information.

Directions:
Register for classes by checking the appropriate box next to each class and selecting the Enrollment Form button.
For a description of the classes, check the appropriate box next to each class and select the Information button.
Current semester: Summer 2017
Start Date Start Time Stop Time Class Location Trainer Seats Taken /
Capacity
05-30-2017 11:00AM 12:00PM Power in Proteins (SA-213) 58W/3805 Lowry, Yemila 22 / 30
05-31-2017 1:00PM 5:00PM UNF Project Management Framework Training for all ITS (ITS-136) 53/1430 Downs, Kimberley 31 / 35
06-01-2017 9:30AM 11:30AM TeamDynamix Training for UNF Project Management Framework (ITS-137) 53/1410 Downs, Kimberley 7 / 15
06-02-2017 9:30AM 12:00PM CCP in Race & Ethnicity Identity (SA-143) 58E/2100 Deiderie Allard 5 / 20
06-02-2017 2:00PM 4:00PM Accepting Credit Card Payments: Payment Card Industry Data Security Standards Compliance (PCI DSS) (PUR-113) 53/1400 Lee, Angela 6 / 24
06-05-2017 9:30AM 11:30AM TeamDynamix Training for UNF Project Management Framework (ITS-137) 53/1410 Downs, Kimberley 2 / 15
06-05-2017 11:00AM 12:00PM Travel & Expense Training for Travelers and Approvers (CON-104) 12/4301 Lee, Angela 4 / 12
06-06-2017 9:00AM 11:00AM Finance Self Service (BGT-100) 53/1400 Campbell, Erin 8 / 24
06-06-2017 11:00AM 12:00PM Mighty Micronutrients (SA-214) 58W/3703A Lowry, Yemila 16 / 30
06-07-2017 10:00AM 11:00AM Project Proposal Training for Requestors (ITS-135) 53/1410 Downs, Kimberley 4 / 20
06-07-2017 1:00PM 2:00PM Project Proposal Training for Requestors (ITS-135) 53/1410 Downs, Kimberley 2 / 20
06-08-2017 10:00AM 11:00AM Project Proposal Training for Requestors (ITS-135) 53/1410 Downs, Kimberley 11 / 20
06-08-2017 1:00PM 2:00PM Project Proposal Training for Requestors (ITS-135) 53/1410 Downs, Kimberley 2 / 20
06-08-2017 2:00PM 4:00PM iContracts (CON-108) 53/1400 Lee, Angela 13 / 24
06-09-2017 8:00AM 12:00PM UNF Project Management Framework Training for all ITS (ITS-136) 53/1430 Downs, Kimberley 14 / 35
06-12-2017 10:30AM 11:30AM Project Proposal Training for Requestors (ITS-135) 53/1410 Downs, Kimberley 3 / 20
06-12-2017 2:00PM 3:00PM Project Proposal Training for Requestors (ITS-135) 53/1410 Downs, Kimberley 5 / 20
06-13-2017 8:00AM 12:00PM UNF Project Management Framework Training for all ITS (ITS-136) 53/1430 Downs, Kimberley 9 / 35
06-13-2017 9:00AM 12:00PM University Domestic Travel Training (CON-106) 12/4301 Lee, Angela 5 / 12
06-13-2017 1:00PM 4:30PM Safe Space: Cultural Competency in LGBTQ Identities (SA-133) 58E/2100 Kaitlin Legg 12 / 15
06-13-2017 1:30PM 3:30PM University International Travel Training (CON-206) 12/4301 Lee, Angela 2 / 12
06-13-2017 2:00PM 4:00PM TeamDynamix Training for UNF Project Management Framework (ITS-137) 53/1410 Downs, Kimberley 6 / 15
06-14-2017 9:00AM 11:00AM CMS Training: Beginner (ITS-118) 53/1400 Thompson, Katherine 4 / 15
06-14-2017 10:00AM 12:00PM TeamDynamix Training for UNF Project Management Framework (ITS-137) 53/1410 Downs, Kimberley 2 / 15
06-15-2017 9:00AM 10:00AM CMS Workshop (ITS-121) 53/1400 Thompson, Katherine 1 / 15
06-15-2017 1:30PM 3:30PM TeamDynamix Training for UNF Project Management Framework (ITS-137) 53/1410 Downs, Kimberley 1 / 15
06-16-2017 9:00AM 12:00PM Introduction to Public Speaking-Part I (HR-130) 53/1420 Harrison, Kelly 8 / 20
06-16-2017 1:30PM 4:30PM Direct Pay & Elec. Invoice Approval (CON-102) 12/4301 Lee, Angela 11 / 12
06-20-2017 9:00AM 11:00AM Creating a Requisition (PUR-104) 53/1400 Asmuth, Shawn 11 / 24
06-20-2017 1:30PM 4:30PM Travel and Expense Training for Delegates (CON-107) 12/4301 Lee, Angela 4 / 12
06-21-2017 1:30PM 4:30PM PCard Banner Training (PUR-110) 12/4301 Durden, Denise 7 / 12
06-22-2017 10:00AM 11:30AM Cubicle Combat: Bullying in the Workplace (EOD-107) 1/1306 Health Advocate (CCW) 8 / 15
06-27-2017 1:00PM 2:00PM Title IX Refresher (EOD-200) TBA Gonzalez, Cheryl 2 / 15
06-28-2017 10:30AM 11:30AM Information for UNF Search and Screen Committee Members (EOD-121) TBA Gonzalez, Cheryl 1 / 12
06-28-2017 2:30PM 4:00PM Awarding Scholarships for Student Travel (AA-100) 1/1306 Lee, Angela 2 / 15
07-03-2017 11:00AM 12:00PM Travel & Expense Training for Travelers and Approvers (CON-104) 12/4301 Lee, Angela 1 / 12
07-06-2017 9:00AM 12:00PM University Domestic Travel Training (CON-106) 53/1400 Lee, Angela 1 / 24
07-06-2017 1:30PM 3:30PM University International Travel Training (CON-206) 53/1400 Lee, Angela 0 / 24
07-10-2017 10:00AM 10:30AM Faculty Activity Reporting Workshop (AA-106) 12/4301 Jarsocrak, Hanna 2 / 12
07-12-2017 9:00AM 11:00AM CMS Training: Beginner (ITS-118) 53/1400 Thompson, Katherine 0 / 15
07-12-2017 9:00AM 11:00AM Finance Self Service (BGT-100) 12/4301 Campbell, Erin 1 / 12
07-12-2017 11:00AM 11:30AM Faculty Activity Reporting Workshop (AA-106) 12/4301 Jarsocrak, Hanna 0 / 12
07-13-2017 9:00AM 11:00AM CMS Workshop (ITS-121) 53/1400 Thompson, Katherine 2 / 15
07-13-2017 1:30PM 4:30PM Travel and Expense Training for Delegates (CON-107) 53/1400 Lee, Angela 1 / 24
07-14-2017 9:00AM 12:00PM Introduction to Public Speaking- Part II (HR-131) 53/1420 Harrison, Kelly 5 / 20
07-14-2017 2:00PM 4:00PM Accepting Credit Card Payments: Payment Card Industry Data Security Standards Compliance (PCI DSS) (PUR-113) 12/4301 Lee, Angela 0 / 12
07-18-2017 1:30PM 4:30PM PCard Banner Training (PUR-110) 53/1400 Durden, Denise 2 / 24
07-18-2017 2:00PM 4:00PM iContracts (CON-108) 12/4301 Lee, Angela 0 / 12
07-21-2017 9:30AM 11:00AM Debunked: FMLA, Workers Comp and the ADA (HR-155) 53/1430 Neidhardt, Jennifer 10 / 30
07-21-2017 2:30PM 4:00PM Quillix Capture 5 (ITS-131) 53/1400 Morrison, Steven 3 / 24
07-27-2017 11:30AM 12:30PM Book Club (PDT-602) 12/2405 Harrison, Kelly 6 / 20
07-28-2017 9:00AM 12:00PM A Brief History of Comic Books and Their Impact on Society (PDT-678) 1/1306 Harrison, Kelly 7 / 12
07-28-2017 9:00AM 12:30PM Safe Space: Cultural Competency in LGBTQ Identities (SA-133) 58E/2100 Kaitlin Legg 1 / 15
08-01-2017 1:30PM 3:30PM Finance Self Service (BGT-100) 53/1400 Campbell, Erin 0 / 24
08-02-2017 9:00AM 11:00AM CMS Training: Beginner (ITS-118) 53/1400 Thompson, Katherine 0 / 15
08-02-2017 2:30PM 4:00PM Awarding Scholarships for Student Travel (AA-100) 1/1306 Lee, Angela 0 / 15
08-03-2017 9:00AM 11:00AM CMS Web Design Basics (ITS-126) 53/1400 Thompson, Katherine 3 / 15
08-03-2017 2:00PM 4:00PM iContracts (CON-108) 53/1400 Lee, Angela 3 / 24
08-04-2017 1:30PM 4:30PM Direct Pay & Elec. Invoice Approval (CON-102) 53/1400 Lee, Angela 1 / 24
08-08-2017 9:00AM 11:00AM Creating a Requisition (PUR-104) 53/1400 Asmuth, Shawn 1 / 24
08-09-2017 9:00AM 12:00PM Developing a Training Class (PDT-171) 1/1306 Harrison, Kelly 5 / 12
08-10-2017 2:00PM 4:00PM Accepting Credit Card Payments: Payment Card Industry Data Security Standards Compliance (PCI DSS) (PUR-113) 53/1400 Lee, Angela 0 / 24